Plainview, Missouri
Current Conditions -  °F | °C
As of 4:55 PM on Saturday 25 Oct 2014 (Local Time) from KIRK Reporting Station
Clear Clear  
Wind Chill: 23°   Ceiling: Unl
Heat Index: 23°   Visibility: 10mi
Dew Point: 12°   Wind: 7mph
Humidity: 48%   Direction: 10°N
Pressure: 30.05"   Gusts: NA
Location:  39.9265°N, 92.4529°W
Report Text: KIRK 252155Z AUTO 01006KT 10SM CLR 23/12 A3005 RMK AO2 SLP174 T02330117
Loading
Personal Weather Stations






























Interactive Weather Map
Tropical Storm Tracking
New forecast layout! Learn more

10-Day Weather Forecast

Advertisements
Track Severe Weather on mobile